createdAt,value
2018-09-23T00:00:41.447Z,46.70
2018-09-23T00:03:11.336Z,46.70
2018-09-23T00:05:40.386Z,46.70
2018-09-23T00:08:10.743Z,46.70
2018-09-23T00:10:40.159Z,46.70
2018-09-23T00:13:09.542Z,46.70
2018-09-23T00:15:38.596Z,46.60
2018-09-23T00:18:07.686Z,46.10
2018-09-23T00:20:36.771Z,46.70
2018-09-23T00:23:05.858Z,46.60
2018-09-23T00:25:35.250Z,46.60
2018-09-23T00:28:04.974Z,46.70
2018-09-23T00:30:34.264Z,46.60
2018-09-23T00:33:03.309Z,46.60
2018-09-23T00:35:33.254Z,46.60
2018-09-23T00:38:02.294Z,46.70
2018-09-23T00:40:31.952Z,46.80
2018-09-23T00:43:01.363Z,46.60
2018-09-23T00:45:31.343Z,46.70
2018-09-23T00:48:00.601Z,46.70
2018-09-23T00:50:29.646Z,46.70
2018-09-23T00:52:59.247Z,46.70
2018-09-23T00:55:28.305Z,46.70
2018-09-23T00:57:57.985Z,46.70
2018-09-23T01:00:27.067Z,46.70
2018-09-23T01:02:56.113Z,46.70
2018-09-23T01:05:26.091Z,47.30
2018-09-23T01:07:55.809Z,46.70
2018-09-23T01:10:25.298Z,46.70
2018-09-23T01:12:54.387Z,47.40
2018-09-23T01:15:23.510Z,46.70
2018-09-23T01:17:53.190Z,47.40
2018-09-23T01:20:23.242Z,46.70
2018-09-23T01:22:52.926Z,46.80
2018-09-23T01:25:22.160Z,47.40
2018-09-23T01:27:51.219Z,46.80
2018-09-23T01:30:20.314Z,46.80
2018-09-23T01:32:49.357Z,46.80
2018-09-23T01:35:18.585Z,46.80
2018-09-23T01:37:47.674Z,46.70
2018-09-23T01:40:17.648Z,46.70
2018-09-23T01:42:47.666Z,46.80
2018-09-23T01:45:17.163Z,46.70
2018-09-23T01:47:46.266Z,46.80
2018-09-23T01:50:15.358Z,46.70
2018-09-23T01:52:44.851Z,46.80
2018-09-23T01:55:13.929Z,46.70
2018-09-23T01:57:43.666Z,46.70
2018-09-23T02:00:13.324Z,46.80
2018-09-23T02:02:42.394Z,46.70
2018-09-23T02:05:12.380Z,46.70
2018-09-23T02:07:42.291Z,46.80
2018-09-23T02:10:11.778Z,46.70
2018-09-23T02:12:41.122Z,46.80
2018-09-23T02:15:10.173Z,46.70
2018-09-23T02:17:39.230Z,46.70
2018-09-23T02:20:08.318Z,46.70
2018-09-23T02:22:37.434Z,46.80
2018-09-23T02:25:06.528Z,46.70
2018-09-23T02:27:35.719Z,46.80
2018-09-23T02:30:04.834Z,46.70
2018-09-23T02:32:34.186Z,46.80
2018-09-23T02:35:03.730Z,46.70
2018-09-23T02:37:32.841Z,46.70
2018-09-23T02:40:02.785Z,46.80
2018-09-23T02:42:33.431Z,47.40
2018-09-23T02:45:03.240Z,46.70
2018-09-23T02:47:32.358Z,46.70
2018-09-23T02:50:01.450Z,46.70
2018-09-23T02:52:31.274Z,46.70
2018-09-23T02:55:01.344Z,46.70
2018-09-23T02:57:30.992Z,46.70
2018-09-23T03:00:00.063Z,47.40
2018-09-23T03:02:29.119Z,46.70
2018-09-23T03:04:59.035Z,46.70
2018-09-23T03:07:29.258Z,46.70
2018-09-23T03:09:58.622Z,46.70
2018-09-23T03:12:27.673Z,46.70
2018-09-23T03:14:56.728Z,46.70
2018-09-23T03:17:25.825Z,46.70
2018-09-23T03:19:54.899Z,46.80
2018-09-23T03:22:24.057Z,46.80
2018-09-23T03:24:53.162Z,46.80
2018-09-23T03:27:22.384Z,46.80
2018-09-23T03:29:52.481Z,46.80
2018-09-23T03:32:21.524Z,46.80
2018-09-23T03:34:50.575Z,46.80
2018-09-23T03:37:20.205Z,46.80
2018-09-23T03:39:50.190Z,46.80
2018-09-23T03:42:21.169Z,46.90
2018-09-23T03:44:50.938Z,46.80
2018-09-23T03:47:19.974Z,46.80
2018-09-23T03:49:49.043Z,46.80
2018-09-23T03:52:18.631Z,46.80
2018-09-23T03:54:47.689Z,46.80
2018-09-23T03:57:16.946Z,46.80
2018-09-23T03:59:46.029Z,46.80
2018-09-23T04:02:16.487Z,46.80
2018-09-23T04:04:46.363Z,46.90
2018-09-23T04:07:16.079Z,46.90
2018-09-23T04:09:45.454Z,46.90
2018-09-23T04:12:14.604Z,46.90
2018-09-23T04:14:43.629Z,47.00
2018-09-23T04:17:12.711Z,46.90
2018-09-23T04:19:41.800Z,46.90
2018-09-23T04:22:11.457Z,47.50
2018-09-23T04:24:41.658Z,48.30
2018-09-23T04:27:11.456Z,47.60
2018-09-23T04:31:04.950Z,47.90
2018-09-23T04:33:34.044Z,48.00
2018-09-23T04:36:03.799Z,47.60
2018-09-23T04:38:32.891Z,47.60
2018-09-23T04:41:03.202Z,48.80
2018-09-23T04:43:33.428Z,49.30
2018-09-23T04:46:03.615Z,49.70
2018-09-23T04:48:33.315Z,49.70
2018-09-23T04:51:02.442Z,49.50
2018-09-23T04:53:31.819Z,49.50
2018-09-23T04:56:00.929Z,49.50
2018-09-23T04:58:31.034Z,49.10
2018-09-23T05:01:00.758Z,49.50
2018-09-23T05:03:30.682Z,49.40
2018-09-23T05:05:59.718Z,49.40
2018-09-23T05:08:29.254Z,49.30
2018-09-23T05:10:58.687Z,49.30
2018-09-23T05:13:28.308Z,49.50
2018-09-23T05:15:57.996Z,49.20
2018-09-23T05:18:27.045Z,49.20
2018-09-23T05:20:56.775Z,49.20
2018-09-23T05:23:26.395Z,49.20
2018-09-23T05:25:55.439Z,49.30
2018-09-23T05:28:24.660Z,49.10
2018-09-23T05:30:53.748Z,49.10
2018-09-23T05:33:22.792Z,49.20
2018-09-23T05:35:52.108Z,49.10
2018-09-23T05:38:21.286Z,49.10
2018-09-23T05:40:51.522Z,49.10
2018-09-23T05:43:21.251Z,49.10
2018-09-23T05:45:50.943Z,49.10
2018-09-23T05:48:20.847Z,49.10
2018-09-23T05:50:50.989Z,49.00
2018-09-23T05:53:20.233Z,48.90
2018-09-23T05:55:49.882Z,49.00
2018-09-23T05:58:18.981Z,48.90
2018-09-23T06:00:51.223Z,48.70
2018-09-23T06:03:21.380Z,48.70
2018-09-23T06:05:51.134Z,48.60
2018-09-23T06:08:20.545Z,48.60
2018-09-23T06:10:50.282Z,48.50
2018-09-23T06:13:19.402Z,48.50
2018-09-23T06:15:48.469Z,48.40
2018-09-23T06:18:18.311Z,48.40
2018-09-23T06:20:47.349Z,48.40
2018-09-23T06:23:16.578Z,48.40
2018-09-23T06:25:46.270Z,48.30
2018-09-23T06:28:16.131Z,48.40
2018-09-23T06:30:45.175Z,48.40
2018-09-23T06:33:14.956Z,48.50
2018-09-23T06:35:44.228Z,48.40
2018-09-23T06:38:13.858Z,48.60
2018-09-23T06:40:43.626Z,48.80
2018-09-23T06:43:13.741Z,48.70
2018-09-23T06:45:43.708Z,48.50
2018-09-23T06:48:12.765Z,48.80
2018-09-23T06:50:41.862Z,48.60
2018-09-23T06:53:11.177Z,48.70
2018-09-23T06:55:41.422Z,48.80
2018-09-23T06:58:11.907Z,48.80
2018-09-23T07:00:41.842Z,49.10
2018-09-23T07:03:12.406Z,49.00
2018-09-23T07:05:43.189Z,49.20
2018-09-23T07:08:12.556Z,49.40
2018-09-23T07:10:42.825Z,51.00
2018-09-23T07:13:11.875Z,51.70
2018-09-23T07:15:40.939Z,51.90
2018-09-23T07:18:10.752Z,52.10
2018-09-23T07:20:40.650Z,52.50
2018-09-23T07:23:09.750Z,52.40
2018-09-23T07:25:38.831Z,52.40
2018-09-23T07:28:07.911Z,52.80
2018-09-23T07:30:37.189Z,52.80
2018-09-23T07:33:07.686Z,52.70
2018-09-23T07:35:37.354Z,52.70
2018-09-23T07:38:06.830Z,53.30
2018-09-23T07:40:36.800Z,53.80
2018-09-23T07:43:06.499Z,53.90
2018-09-23T07:45:35.865Z,53.90
2018-09-23T07:48:06.032Z,54.10
2018-09-23T07:50:35.167Z,54.10
2018-09-23T07:53:04.937Z,53.80
2018-09-23T07:55:35.135Z,54.70
2018-09-23T07:58:05.121Z,54.90
2018-09-23T08:00:34.860Z,55.10
2018-09-23T08:03:04.609Z,55.00
2018-09-23T08:05:34.250Z,54.80
2018-09-23T08:08:04.309Z,54.80
2018-09-23T08:10:34.025Z,55.10
2018-09-23T08:13:03.492Z,55.50
2018-09-23T08:15:32.558Z,56.30
2018-09-23T08:18:02.214Z,54.80
2018-09-23T08:20:32.063Z,54.40
2018-09-23T08:23:01.722Z,53.90
2018-09-23T08:25:30.840Z,53.80
2018-09-23T08:28:01.149Z,53.40
2018-09-23T08:30:30.627Z,53.30
2018-09-23T08:33:00.104Z,53.10
2018-09-23T08:35:29.923Z,52.90
2018-09-23T08:37:59.007Z,52.70
2018-09-23T08:40:28.891Z,52.70
2018-09-23T08:42:59.299Z,52.50
2018-09-23T08:45:29.299Z,52.40
2018-09-23T08:47:59.184Z,52.30
2018-09-23T08:50:28.310Z,52.20
2018-09-23T08:52:57.851Z,52.00
2018-09-23T08:55:27.349Z,51.90
2018-09-23T08:57:56.717Z,51.50
2018-09-23T09:00:26.501Z,52.00
2018-09-23T09:02:56.239Z,52.10
2018-09-23T09:05:26.087Z,52.00
2018-09-23T09:07:55.774Z,51.80
2018-09-23T09:10:25.183Z,51.70
2018-09-23T09:12:54.535Z,51.70
2018-09-23T09:15:23.639Z,51.50
2018-09-23T09:17:53.392Z,51.20
2018-09-23T09:20:22.496Z,51.10
2018-09-23T09:22:51.608Z,50.90
2018-09-23T09:25:21.328Z,50.90
2018-09-23T09:27:50.431Z,50.70
2018-09-23T09:30:19.539Z,50.60
2018-09-23T09:32:48.642Z,50.60
2018-09-23T09:35:17.944Z,50.50
2018-09-23T09:37:47.051Z,50.40
2018-09-23T09:40:17.406Z,50.30
2018-09-23T09:42:47.232Z,50.20
2018-09-23T09:45:17.781Z,50.10
2018-09-23T09:47:47.157Z,50.10
2018-09-23T09:50:16.784Z,50.00
2018-09-23T09:52:48.152Z,50.00
2018-09-23T09:55:17.475Z,49.90
2018-09-23T09:57:48.159Z,51.00
2018-09-23T10:00:22.626Z,51.00
2018-09-23T10:02:51.879Z,50.90
2018-09-23T10:05:21.534Z,51.00
2018-09-23T10:07:51.431Z,50.90
2018-09-23T10:10:21.705Z,51.00
2018-09-23T10:12:50.778Z,51.20
2018-09-23T10:15:19.868Z,51.60
2018-09-23T10:17:49.534Z,51.40
2018-09-23T10:20:20.128Z,51.10
2018-09-23T10:22:49.362Z,51.40
2018-09-23T10:25:19.375Z,51.40
2018-09-23T10:27:48.480Z,51.40
2018-09-23T10:30:18.634Z,51.40
2018-09-23T10:32:48.655Z,51.60
2018-09-23T10:35:17.743Z,51.60
2018-09-23T10:37:47.614Z,51.90
2018-09-23T10:40:17.132Z,52.10
2018-09-23T10:42:46.718Z,52.30
2018-09-23T10:45:16.225Z,52.30
2018-09-23T10:47:45.372Z,52.20
2018-09-23T10:50:14.466Z,52.20
2018-09-23T10:52:43.572Z,52.00
2018-09-23T10:55:12.625Z,52.10
2018-09-23T10:57:42.457Z,52.10
2018-09-23T11:00:11.871Z,51.90
2018-09-23T11:02:41.499Z,51.90
2018-09-23T11:05:11.080Z,51.80
2018-09-23T11:07:40.298Z,51.90
2018-09-23T11:10:09.948Z,51.80
2018-09-23T11:12:39.375Z,51.70
2018-09-23T11:15:08.593Z,51.70
2018-09-23T11:17:38.346Z,51.60
2018-09-23T11:20:07.436Z,51.70
2018-09-23T11:22:36.527Z,51.90
2018-09-23T11:25:05.999Z,51.90
2018-09-23T11:27:35.681Z,52.10
2018-09-23T11:30:05.319Z,51.70
2018-09-23T11:32:34.447Z,51.60
2018-09-23T11:35:04.419Z,51.50
2018-09-23T11:37:33.752Z,51.60
2018-09-23T11:40:03.198Z,51.40
2018-09-23T11:42:33.506Z,51.40
2018-09-23T11:45:03.034Z,51.40
2018-09-23T11:47:32.238Z,51.30
2018-09-23T11:50:02.331Z,51.40
2018-09-23T11:52:31.912Z,51.30
2018-09-23T11:55:01.526Z,51.30
2018-09-23T11:57:31.279Z,51.20
2018-09-23T12:00:00.954Z,51.30
2018-09-23T12:02:30.572Z,51.70
2018-09-23T12:05:00.745Z,51.60
2018-09-23T12:07:30.870Z,51.30
2018-09-23T12:10:00.594Z,51.00
2018-09-23T12:12:29.705Z,50.50
2018-09-23T12:14:59.212Z,50.40
2018-09-23T12:17:29.479Z,50.20
2018-09-23T12:19:59.078Z,50.20
2018-09-23T12:22:28.146Z,50.20
2018-09-23T12:24:57.951Z,50.50
2018-09-23T12:27:27.915Z,50.70
2018-09-23T12:29:57.531Z,50.70
2018-09-23T12:32:26.908Z,50.70
2018-09-23T12:34:57.314Z,50.90
2018-09-23T12:37:27.039Z,50.80
2018-09-23T12:39:57.423Z,50.80
2018-09-23T12:42:29.434Z,50.70
2018-09-23T12:45:02.582Z,50.80
2018-09-23T12:54:32.810Z,50.80
2018-09-23T12:57:04.076Z,51.00
2018-09-23T12:59:35.121Z,51.00
2018-09-23T13:02:06.509Z,51.00
2018-09-23T13:04:37.566Z,51.00
2018-09-23T13:07:08.420Z,50.90
2018-09-23T13:09:38.118Z,51.00
2018-09-23T13:12:08.387Z,51.10
2018-09-23T13:14:38.059Z,51.20
2018-09-23T13:17:07.672Z,51.30
2018-09-23T13:19:37.631Z,51.30
2018-09-23T13:22:07.974Z,51.40
2018-09-23T13:24:38.474Z,51.50
2018-09-23T13:27:08.494Z,51.50
2018-09-23T13:29:37.667Z,51.50
2018-09-23T13:32:08.026Z,51.40
2018-09-23T13:34:38.512Z,51.40
2018-09-23T13:37:08.252Z,52.20
2018-09-23T13:39:38.651Z,51.60
2018-09-23T13:42:09.727Z,51.70
2018-09-23T13:44:39.146Z,51.70
2018-09-23T13:47:08.999Z,51.20
2018-09-23T13:49:39.290Z,51.30
2018-09-23T13:52:09.238Z,51.60
2018-09-23T13:54:39.315Z,51.60
2018-09-23T13:57:09.443Z,51.90
2018-09-23T13:59:38.600Z,51.80
2018-09-23T14:02:07.698Z,51.80
2018-09-23T14:04:37.622Z,51.90
2018-09-23T14:07:07.484Z,52.60
2018-09-23T14:09:37.506Z,52.00
2018-09-23T14:12:06.868Z,52.00
2018-09-23T14:14:36.419Z,52.10
2018-09-23T14:17:05.533Z,52.30
2018-09-23T14:19:35.199Z,52.40
2018-09-23T14:22:05.686Z,52.40
2018-09-23T14:24:34.770Z,52.40
2018-09-23T14:27:03.923Z,52.40
2018-09-23T14:29:32.992Z,52.50
2018-09-23T14:32:02.513Z,52.40
2018-09-23T14:34:32.051Z,52.60
2018-09-23T14:37:02.807Z,52.50
2018-09-23T14:39:33.068Z,52.50
2018-09-23T14:42:03.753Z,52.40
2018-09-23T14:44:33.214Z,52.50
2018-09-23T14:47:02.294Z,52.30
2018-09-23T14:49:31.400Z,52.00
2018-09-23T14:52:02.479Z,52.50
2018-09-23T14:54:33.080Z,52.50
2018-09-23T14:57:03.006Z,52.30
2018-09-23T14:59:32.849Z,52.60
2018-09-23T15:02:01.921Z,52.20
2018-09-23T15:04:32.384Z,52.80
2018-09-23T15:07:01.490Z,52.60
2018-09-23T15:09:31.476Z,52.40
2018-09-23T15:12:00.702Z,52.40
2018-09-23T15:14:29.899Z,52.30
2018-09-23T15:16:59.042Z,52.10
2018-09-23T15:19:28.876Z,52.10
2018-09-23T15:21:58.038Z,52.00
2018-09-23T15:24:27.899Z,52.00
2018-09-23T15:26:57.018Z,52.00
2018-09-23T15:29:26.853Z,51.90
2018-09-23T15:31:55.937Z,51.80
2018-09-23T15:34:25.731Z,51.90
2018-09-23T15:36:55.700Z,51.80
2018-09-23T15:39:24.957Z,51.70
2018-09-23T15:41:54.706Z,51.70
2018-09-23T15:44:24.722Z,51.70
2018-09-23T15:46:53.813Z,51.60
2018-09-23T15:49:23.724Z,51.70
2018-09-23T15:51:53.524Z,51.70
2018-09-23T15:54:23.807Z,51.70
2018-09-23T15:56:53.530Z,51.60
2018-09-23T15:59:22.749Z,51.60
2018-09-23T16:01:52.425Z,51.60
2018-09-23T16:04:22.746Z,51.60
2018-09-23T16:06:52.001Z,51.60
2018-09-23T16:09:21.412Z,51.60
2018-09-23T16:11:51.254Z,51.50
2018-09-23T16:14:21.851Z,52.10
2018-09-23T16:16:50.976Z,51.50
2018-09-23T16:19:20.931Z,51.40
2018-09-23T16:21:49.962Z,51.50
2018-09-23T16:24:19.442Z,51.40
2018-09-23T16:26:48.606Z,51.50
2018-09-23T16:29:18.302Z,51.00
2018-09-23T16:31:47.762Z,51.60
2018-09-23T16:34:17.410Z,51.60
2018-09-23T16:36:46.994Z,51.80
2018-09-23T16:39:16.568Z,51.80
2018-09-23T16:41:46.726Z,51.80
2018-09-23T16:44:16.198Z,51.90
2018-09-23T16:46:45.624Z,52.40
2018-09-23T16:49:14.953Z,52.00
2018-09-23T16:51:44.112Z,51.80
2018-09-23T16:54:14.099Z,51.80
2018-09-23T16:56:43.622Z,51.90
2018-09-23T16:59:13.596Z,51.90
2018-09-23T17:01:42.646Z,51.70
2018-09-23T17:04:12.258Z,51.90
2018-09-23T17:06:41.814Z,52.40
2018-09-23T17:09:11.704Z,52.40
2018-09-23T17:11:41.796Z,52.40
2018-09-23T17:14:11.085Z,52.60
2018-09-23T17:16:40.191Z,52.60
2018-09-23T17:19:09.884Z,52.60
2018-09-23T17:21:39.072Z,52.70
2018-09-23T17:24:08.775Z,52.70
2018-09-23T17:26:38.236Z,53.30
2018-09-23T17:29:07.955Z,52.80
2018-09-23T17:31:38.246Z,52.70
2018-09-23T17:34:08.022Z,52.60
2018-09-23T17:36:37.600Z,52.60
2018-09-23T17:39:09.606Z,52.50
2018-09-23T17:41:39.686Z,52.50
2018-09-23T17:44:09.674Z,52.50
2018-09-23T17:46:38.971Z,52.40
2018-09-23T17:49:08.656Z,52.40
2018-09-23T17:51:38.090Z,52.30
2018-09-23T17:54:08.431Z,52.80
2018-09-23T17:56:37.869Z,52.40
2018-09-23T17:59:07.178Z,52.50
2018-09-23T18:01:36.360Z,52.60
2018-09-23T18:04:06.934Z,52.70
2018-09-23T18:06:36.477Z,52.50
2018-09-23T18:09:08.352Z,52.60
2018-09-23T18:11:37.784Z,52.60
2018-09-23T18:14:06.880Z,52.50
2018-09-23T18:16:36.078Z,52.50
2018-09-23T18:19:06.236Z,52.50
2018-09-23T18:21:35.660Z,52.50
2018-09-23T18:24:05.043Z,52.40
2018-09-23T18:26:36.669Z,52.40
2018-09-23T18:29:06.228Z,52.40
2018-09-23T18:31:35.296Z,52.40
2018-09-23T18:34:04.408Z,52.40
2018-09-23T18:36:34.404Z,52.30
2018-09-23T18:39:04.365Z,52.40
2018-09-23T18:41:34.306Z,52.40
2018-09-23T18:44:04.730Z,52.50
2018-09-23T18:46:33.846Z,52.50
2018-09-23T18:49:02.970Z,52.60
2018-09-23T18:51:32.662Z,52.70
2018-09-23T18:54:09.117Z,53.00
2018-09-23T18:56:38.532Z,53.00
2018-09-23T18:59:08.638Z,53.50
2018-09-23T19:01:37.707Z,54.40
2018-09-23T19:04:07.623Z,54.10
2018-09-23T19:06:36.699Z,54.20
2018-09-23T19:09:07.220Z,54.00
2018-09-23T19:11:36.839Z,54.00
2018-09-23T19:14:05.916Z,54.00
2018-09-23T19:16:35.782Z,53.90
2018-09-23T19:19:05.739Z,53.90
2018-09-23T19:21:35.376Z,53.90
2018-09-23T19:24:04.414Z,53.70
2018-09-23T19:26:33.961Z,53.70
2018-09-23T19:29:03.759Z,53.70
2018-09-23T19:31:32.974Z,53.50
2018-09-23T19:34:02.200Z,53.60
2018-09-23T19:36:32.549Z,53.50
2018-09-23T19:39:01.646Z,53.50
2018-09-23T19:41:31.039Z,53.50
2018-09-23T19:44:00.889Z,53.50
2018-09-23T19:46:30.245Z,53.40
2018-09-23T19:48:59.418Z,53.40
2018-09-23T19:51:30.120Z,53.40
2018-09-23T19:53:59.370Z,53.70
2018-09-23T19:56:28.981Z,53.90
2018-09-23T19:58:58.386Z,53.80
2018-09-23T20:01:28.440Z,53.70
2018-09-23T20:03:59.221Z,53.50
2018-09-23T20:06:29.303Z,54.00
2018-09-23T20:08:58.887Z,54.00
2018-09-23T20:11:29.733Z,54.00
2018-09-23T20:13:59.807Z,53.80
2018-09-23T20:16:30.380Z,53.70
2018-09-23T20:19:01.149Z,53.70
2018-09-23T20:21:30.950Z,53.70
2018-09-23T20:24:00.115Z,53.60
2018-09-23T20:26:30.171Z,53.50
2018-09-23T20:28:59.794Z,53.50
2018-09-23T20:31:28.889Z,53.60
2018-09-23T20:33:58.122Z,53.60
2018-09-23T20:39:09.079Z,53.50
2018-09-23T20:41:38.963Z,53.60
2018-09-23T20:44:08.645Z,53.50
2018-09-23T20:46:37.749Z,53.80
2018-09-23T20:49:07.666Z,53.90
2018-09-23T20:51:36.929Z,53.80
2018-09-23T20:54:06.014Z,53.70
2018-09-23T20:56:36.264Z,54.20
2018-09-23T20:59:07.507Z,53.80
2018-09-23T21:01:36.570Z,53.70
2018-09-23T21:04:06.812Z,53.80
2018-09-23T21:06:35.897Z,53.90
2018-09-23T21:09:09.589Z,53.70
2018-09-23T21:11:39.147Z,53.90
2018-09-23T21:14:10.003Z,53.40
2018-09-23T21:16:39.667Z,53.40
2018-09-23T21:19:09.418Z,53.30
2018-09-23T21:21:39.530Z,53.40
2018-09-23T21:24:08.852Z,53.30
2018-09-23T21:26:39.426Z,53.20
2018-09-23T21:29:09.783Z,53.20
2018-09-23T21:31:38.878Z,53.10
2018-09-23T21:34:08.294Z,53.00
2018-09-23T21:36:39.250Z,53.00
2018-09-23T21:39:10.167Z,52.90
2018-09-23T21:41:41.317Z,52.90
2018-09-23T21:44:10.994Z,52.90
2018-09-23T21:46:40.070Z,52.80
2018-09-23T21:49:09.849Z,52.80
2018-09-23T21:51:38.969Z,53.50
2018-09-23T21:54:08.710Z,52.70
2018-09-23T21:56:39.331Z,52.80
2018-09-23T21:59:08.859Z,52.70
2018-09-23T22:01:38.254Z,52.70
2018-09-23T22:04:08.267Z,52.60
2018-09-23T22:06:37.318Z,52.60
2018-09-23T22:09:08.569Z,52.60
2018-09-23T22:11:37.989Z,52.60
2018-09-23T22:14:07.800Z,52.50
2018-09-23T22:16:37.956Z,52.50
2018-09-23T22:19:07.068Z,52.50
2018-09-23T22:21:37.045Z,52.50
2018-09-23T22:24:06.235Z,52.50
2018-09-23T22:26:35.311Z,52.50
2018-09-23T22:29:05.222Z,52.50
2018-09-23T22:31:34.263Z,52.40
2018-09-23T22:34:03.433Z,52.80
2018-09-23T22:36:34.579Z,52.70
2018-09-23T22:39:04.923Z,52.70
2018-09-23T22:41:33.995Z,52.40
2018-09-23T22:44:03.397Z,52.40
2018-09-23T22:46:32.510Z,52.40
2018-09-23T22:49:01.754Z,52.40
2018-09-23T22:51:32.112Z,52.30
2018-09-23T22:54:01.140Z,52.40
2018-09-23T22:56:30.732Z,52.30
2018-09-23T22:59:00.106Z,52.30
2018-09-23T23:01:29.344Z,52.30
2018-09-23T23:03:59.253Z,52.30
2018-09-23T23:06:28.382Z,52.20
2018-09-23T23:08:58.360Z,52.20
2018-09-23T23:11:27.979Z,52.20
2018-09-23T23:13:57.033Z,52.20
2018-09-23T23:16:26.583Z,52.20
2018-09-23T23:18:56.520Z,52.20
2018-09-23T23:21:26.317Z,52.20
2018-09-23T23:23:55.401Z,52.10
2018-09-23T23:26:24.979Z,52.20
2018-09-23T23:28:54.730Z,52.10
2018-09-23T23:31:24.073Z,52.10
2018-09-23T23:33:53.329Z,52.10
2018-09-23T23:36:23.034Z,52.10
2018-09-23T23:38:52.824Z,52.00
2018-09-23T23:41:22.046Z,52.00
2018-09-23T23:43:51.827Z,52.00
2018-09-23T23:46:21.518Z,51.90
2018-09-23T23:48:51.158Z,51.90
2018-09-23T23:51:20.882Z,51.90
2018-09-23T23:53:49.926Z,51.90
2018-09-23T23:56:19.541Z,51.90
2018-09-23T23:58:48.603Z,51.80
